Time;durP1;ratioP1;P1;durP2;ratioP2;P2;SDS_P1;SDS_P2;PMS_P1;PMS_P2;Temp;Humidity;BMP_temperature;BMP_pressure;BME280_temperature;BME280_humidity;BME280_pressure;Samples;Min_cycle;Max_cycle;Signal;HPM_P1;HPM_P2
2022/07/06 00:01:42;;;;;;;7.18;3.40;;;19.20;99.90;;;;;;4956857;28;20055;-82
2022/07/06 00:04:07;;;;;;;4.05;3.00;;;19.20;99.90;;;;;;4952262;28;20018;-82
2022/07/06 00:06:33;;;;;;;3.38;3.05;;;19.20;99.90;;;;;;4948205;28;20070;-82
2022/07/06 00:08:59;;;;;;;3.70;3.25;;;19.20;99.90;;;;;;4930570;29;20091;-82
2022/07/06 00:11:25;;;;;;;3.90;2.90;;;19.20;99.90;;;;;;4939597;29;20028;-81
2022/07/06 00:13:51;;;;;;;4.03;3.00;;;19.20;99.90;;;;;;4941763;29;20043;-82
2022/07/06 00:16:18;;;;;;;4.05;2.85;;;19.10;99.90;;;;;;4941204;29;20036;-82
2022/07/06 00:18:44;;;;;;;4.10;2.92;;;19.20;99.90;;;;;;4948198;29;20031;-82
2022/07/06 00:21:10;;;;;;;4.65;3.20;;;19.30;99.90;;;;;;4942022;29;20055;-83
2022/07/06 00:23:35;;;;;;;4.75;3.15;;;19.40;99.90;;;;;;4939223;29;20076;-82
2022/07/06 00:26:02;;;;;;;4.65;2.92;;;19.40;99.90;;;;;;4942872;29;20034;-83
2022/07/06 00:28:28;;;;;;;4.05;3.30;;;19.40;99.90;;;;;;4950334;29;20080;-83
2022/07/06 00:30:54;;;;;;;3.13;2.85;;;19.40;99.90;;;;;;4944733;29;20031;-83
2022/07/06 00:33:21;;;;;;;4.10;3.00;;;19.30;99.90;;;;;;4941278;29;20020;-81
2022/07/06 00:35:47;;;;;;;5.15;3.72;;;19.20;99.90;;;;;;4938908;29;20038;-83
2022/07/06 00:38:13;;;;;;;6.03;3.38;;;19.10;99.90;;;;;;4931843;29;20028;-81
2022/07/06 00:40:39;;;;;;;9.32;3.58;;;19.00;99.90;;;;;;4957308;29;20036;-81
2022/07/06 00:43:05;;;;;;;6.28;3.70;;;18.90;99.90;;;;;;4959008;29;20028;-80
2022/07/06 00:45:32;;;;;;;7.55;3.65;;;18.90;99.90;;;;;;4942284;29;20032;-82
2022/07/06 00:47:58;;;;;;;4.85;3.72;;;18.90;99.90;;;;;;4968905;29;20043;-82
2022/07/06 00:50:25;;;;;;;5.28;3.28;;;19.00;99.90;;;;;;4926170;29;20033;-84
2022/07/06 00:52:56;;;;;;;6.90;3.58;;;19.10;99.90;;;;;;4921696;29;20020;-83
2022/07/06 00:55:25;;;;;;;6.88;3.50;;;19.20;99.90;;;;;;4940684;29;20035;-84
2022/07/06 00:57:51;;;;;;;5.60;4.00;;;19.30;99.90;;;;;;4978325;23;20068;-87
2022/07/06 01:00:19;;;;;;;4.53;4.10;;;19.40;99.90;;;;;;4954005;28;20036;-86
2022/07/06 01:02:46;;;;;;;7.45;5.53;;;19.50;99.90;;;;;;4958496;28;20043;-86
2022/07/06 01:05:13;;;;;;;10.70;5.30;;;19.50;99.90;;;;;;4964908;28;20035;-87
2022/07/06 01:07:42;;;;;;;5.78;5.28;;;19.50;99.90;;;;;;4948282;28;20028;-87
2022/07/06 01:10:10;;;;;;;8.43;5.75;;;19.50;99.90;;;;;;4943134;29;20035;-86
2022/07/06 01:12:38;;;;;;;7.07;5.93;;;19.50;99.90;;;;;;4927798;29;20016;-87
2022/07/06 01:15:07;;;;;;;14.23;6.07;;;19.50;99.90;;;;;;4943020;29;20055;-87
2022/07/06 01:17:33;;;;;;;7.72;6.78;;;19.50;99.90;;;;;;4956494;28;20012;-88
2022/07/06 01:20:20;;;;;;;9.10;6.32;;;19.50;99.90;;;;;;4943531;29;20052;-87
2022/07/06 01:22:48;;;;;;;7.50;6.43;;;19.50;99.90;;;;;;4952451;29;20024;-87
2022/07/06 01:25:14;;;;;;;8.18;6.60;;;19.50;99.90;;;;;;4939771;29;20060;-87
2022/07/06 01:27:41;;;;;;;8.05;7.13;;;19.50;99.90;;;;;;4945992;29;20067;-87
2022/07/06 01:30:13;;;;;;;7.40;6.70;;;19.50;99.90;;;;;;4939396;29;20043;-88
2022/07/06 01:32:40;;;;;;;10.93;7.35;;;19.50;99.90;;;;;;4929595;29;20032;-88
2022/07/06 01:35:08;;;;;;;9.30;6.82;;;19.50;99.90;;;;;;4928859;29;20096;-88
2022/07/06 01:37:34;;;;;;;9.35;6.88;;;19.60;99.90;;;;;;4943663;29;20066;-88
2022/07/06 01:40:01;;;;;;;12.25;6.85;;;19.60;99.90;;;;;;4922582;29;20072;-89
2022/07/06 01:42:27;;;;;;;9.38;6.47;;;19.50;99.90;;;;;;4936075;29;20033;-89
2022/07/06 01:44:54;;;;;;;8.50;5.55;;;19.60;99.90;;;;;;4943043;29;20035;-86
2022/07/06 01:47:21;;;;;;;7.40;6.45;;;19.50;99.90;;;;;;4944966;29;20040;-86
2022/07/06 01:49:49;;;;;;;8.15;5.85;;;19.50;99.90;;;;;;4948113;29;20117;-87
2022/07/06 01:52:15;;;;;;;8.60;5.65;;;19.50;99.90;;;;;;4938767;29;20064;-87
2022/07/06 01:54:41;;;;;;;13.15;5.10;;;19.50;99.90;;;;;;4926632;29;20039;-89
2022/07/06 01:57:08;;;;;;;8.27;5.30;;;19.50;99.90;;;;;;4947654;28;20043;-87
2022/07/06 01:59:34;;;;;;;5.75;4.70;;;19.50;99.90;;;;;;4935408;29;20181;-87
2022/07/06 02:02:00;;;;;;;6.75;5.05;;;19.50;99.90;;;;;;4953090;29;20052;-87
2022/07/06 02:04:26;;;;;;;8.65;5.22;;;19.50;99.90;;;;;;4921875;29;20035;-88
2022/07/06 02:06:52;;;;;;;6.78;5.15;;;19.50;99.90;;;;;;4922487;29;20016;-87
2022/07/06 02:09:19;;;;;;;6.03;4.97;;;19.50;99.90;;;;;;4936575;29;20024;-88
2022/07/06 02:11:45;;;;;;;7.47;5.50;;;19.50;99.90;;;;;;4941464;29;20087;-87
2022/07/06 02:14:11;;;;;;;5.88;5.30;;;19.50;99.90;;;;;;4943914;29;20052;-88
2022/07/06 02:16:39;;;;;;;6.15;5.57;;;19.50;99.90;;;;;;4936005;29;20071;-87
2022/07/06 02:19:05;;;;;;;10.77;5.53;;;19.50;99.90;;;;;;4928452;29;20029;-89
2022/07/06 02:21:31;;;;;;;11.52;5.90;;;19.40;99.90;;;;;;4945155;29;20032;-88
2022/07/06 02:23:57;;;;;;;6.97;5.25;;;19.40;99.90;;;;;;4937262;29;20051;-87
2022/07/06 02:26:23;;;;;;;8.85;5.40;;;19.40;99.90;;;;;;4942559;29;20115;-87
2022/07/06 02:28:50;;;;;;;8.73;5.57;;;19.40;99.90;;;;;;4917137;29;20040;-87
2022/07/06 02:31:16;;;;;;;5.72;5.05;;;19.40;99.90;;;;;;4942179;29;20027;-88
2022/07/06 02:33:44;;;;;;;13.30;5.50;;;19.50;99.90;;;;;;4954067;29;20036;-87
2022/07/06 02:36:11;;;;;;;9.02;5.18;;;19.70;99.90;;;;;;4946083;28;20040;-88
2022/07/06 02:38:37;;;;;;;8.38;5.68;;;19.80;99.90;;;;;;4947690;29;20060;-88
2022/07/06 02:41:03;;;;;;;8.90;6.50;;;19.90;99.90;;;;;;4944970;29;20032;-88
2022/07/06 02:43:29;;;;;;;8.30;5.75;;;19.80;99.90;;;;;;4947716;29;20020;-88
2022/07/06 02:45:55;;;;;;;10.35;6.57;;;19.70;99.90;;;;;;4951635;29;20043;-87
2022/07/06 02:48:21;;;;;;;8.68;6.18;;;19.70;99.90;;;;;;4952718;29;20020;-88
2022/07/06 02:50:49;;;;;;;6.97;6.25;;;19.60;99.90;;;;;;4941825;29;20087;-87
2022/07/06 02:53:18;;;;;;;8.95;5.55;;;19.50;99.90;;;;;;4950244;29;20039;-87
2022/07/06 02:55:44;;;;;;;7.25;5.82;;;19.50;99.90;;;;;;4956498;28;20127;-86
2022/07/06 02:58:10;;;;;;;8.45;6.32;;;19.40;99.90;;;;;;4931265;29;20035;-83
2022/07/06 03:00:36;;;;;;;7.72;6.32;;;19.40;99.90;;;;;;4942705;29;20496;-86
2022/07/06 03:03:03;;;;;;;9.20;6.35;;;19.30;99.90;;;;;;4939466;29;20080;-85
2022/07/06 03:05:29;;;;;;;8.85;5.85;;;19.20;99.90;;;;;;4934422;29;20035;-85
2022/07/06 03:07:56;;;;;;;9.68;5.70;;;19.10;99.90;;;;;;4955219;29;20042;-85
2022/07/06 03:10:22;;;;;;;10.70;5.90;;;19.00;99.90;;;;;;4946909;29;20016;-83
2022/07/06 03:12:47;;;;;;;6.60;5.95;;;19.00;99.90;;;;;;4945100;29;20032;-84
2022/07/06 03:15:14;;;;;;;9.20;6.55;;;18.90;99.90;;;;;;4938855;29;20031;-85
2022/07/06 03:17:43;;;;;;;11.02;6.18;;;18.90;99.90;;;;;;4951341;29;20024;-83
2022/07/06 03:20:10;;;;;;;7.10;5.72;;;18.80;99.90;;;;;;4942310;29;20500;-82
2022/07/06 03:22:36;;;;;;;12.07;6.95;;;18.80;99.90;;;;;;4940963;29;20024;-83
2022/07/06 03:25:04;;;;;;;10.07;6.70;;;18.80;99.90;;;;;;4936307;29;20051;-83
2022/07/06 03:27:30;;;;;;;7.65;6.43;;;18.70;99.90;;;;;;4946384;29;20034;-84
2022/07/06 03:29:55;;;;;;;10.10;5.88;;;18.70;99.90;;;;;;4944117;29;20032;-84
2022/07/06 03:32:22;;;;;;;9.20;6.47;;;18.80;99.90;;;;;;4947422;29;20032;-85
2022/07/06 03:34:48;;;;;;;9.27;6.40;;;18.70;99.90;;;;;;4935970;29;20036;-83
2022/07/06 03:37:15;;;;;;;6.63;5.35;;;18.60;99.90;;;;;;4947818;28;20149;-83
2022/07/06 03:39:42;;;;;;;9.20;5.65;;;18.60;99.90;;;;;;4940094;29;20024;-82
2022/07/06 03:42:09;;;;;;;6.32;5.47;;;18.70;99.90;;;;;;4945789;28;20038;-82
2022/07/06 03:44:36;;;;;;;6.93;5.03;;;18.70;99.90;;;;;;4953469;29;20046;-82
2022/07/06 03:47:03;;;;;;;8.50;4.70;;;18.80;99.90;;;;;;4946789;29;20083;-80
2022/07/06 03:49:29;;;;;;;9.82;5.07;;;18.90;99.90;;;;;;4950305;28;20016;-83
2022/07/06 03:51:58;;;;;;;8.48;5.00;;;18.90;99.90;;;;;;4957010;29;20397;-82
2022/07/06 03:54:25;;;;;;;7.88;4.38;;;18.90;99.90;;;;;;4944760;28;20207;-82
2022/07/06 03:56:57;;;;;;;5.97;4.60;;;18.90;99.90;;;;;;4942898;28;20119;-85
2022/07/06 03:59:24;;;;;;;6.32;4.28;;;19.00;99.90;;;;;;4945529;29;20021;-79
2022/07/06 04:01:50;;;;;;;7.32;4.97;;;19.10;99.90;;;;;;4948443;28;20100;-80
2022/07/06 04:04:17;;;;;;;9.57;4.63;;;19.10;99.90;;;;;;4948975;28;20020;-84
2022/07/06 04:06:50;;;;;;;11.95;4.40;;;19.10;99.90;;;;;;4949401;28;20106;-81
2022/07/06 04:09:17;;;;;;;6.10;4.78;;;19.20;99.90;;;;;;4946317;28;20103;-80
2022/07/06 04:11:44;;;;;;;7.45;4.00;;;19.20;99.90;;;;;;4941100;29;20043;-85
2022/07/06 04:14:10;;;;;;;8.93;4.45;;;19.30;99.90;;;;;;4922094;29;20404;-79
2022/07/06 04:16:36;;;;;;;5.35;3.88;;;19.40;99.90;;;;;;4922757;29;20028;-83
2022/07/06 04:19:02;;;;;;;5.00;4.18;;;19.50;99.90;;;;;;4932045;29;20479;-83
2022/07/06 04:21:31;;;;;;;7.75;4.68;;;19.60;99.90;;;;;;4936216;29;20120;-83
2022/07/06 04:23:58;;;;;;;12.05;4.78;;;19.60;99.90;;;;;;4936359;29;20027;-84
2022/07/06 04:26:24;;;;;;;6.53;4.55;;;19.70;99.90;;;;;;4913136;29;20048;-81
2022/07/06 04:28:50;;;;;;;8.80;5.15;;;19.80;99.90;;;;;;4930530;29;20165;-80
2022/07/06 04:31:16;;;;;;;10.98;4.95;;;19.90;99.90;;;;;;4953726;29;20028;-80
2022/07/06 04:33:47;;;;;;;8.32;3.97;;;20.00;99.90;;;;;;4945204;29;20036;-81
2022/07/06 04:36:14;;;;;;;6.57;4.18;;;20.10;99.90;;;;;;4943498;29;20039;-81
2022/07/06 04:38:51;;;;;;;10.23;4.10;;;20.20;99.90;;;;;;4940436;29;20063;-82
2022/07/06 04:41:17;;;;;;;8.65;4.72;;;20.20;99.90;;;;;;4947335;29;20040;-82
2022/07/06 04:43:44;;;;;;;8.30;4.20;;;20.30;99.90;;;;;;4942375;29;20020;-83
2022/07/06 04:46:12;;;;;;;11.02;4.38;;;20.40;99.90;;;;;;4963357;28;20016;-85
2022/07/06 04:48:42;;;;;;;4.68;4.10;;;20.40;99.90;;;;;;4944722;28;20029;-82
2022/07/06 04:51:13;;;;;;;11.43;4.63;;;20.50;99.90;;;;;;4932293;29;20116;-90
2022/07/06 04:53:39;;;;;;;5.40;3.95;;;20.60;99.90;;;;;;4942470;29;20025;-85
2022/07/06 04:56:06;;;;;;;5.65;3.90;;;20.80;99.90;;;;;;4947112;29;20015;-84
2022/07/06 04:58:34;;;;;;;8.45;3.75;;;21.10;99.90;;;;;;4945450;29;20034;-86
2022/07/06 05:01:01;;;;;;;9.45;4.03;;;21.30;99.90;;;;;;4932030;29;20031;-84
2022/07/06 05:03:27;;;;;;;7.72;4.35;;;21.40;99.90;;;;;;4941423;29;20144;-83
2022/07/06 05:05:53;;;;;;;10.40;3.55;;;21.50;99.90;;;;;;4931318;29;20028;-85
2022/07/06 05:08:19;;;;;;;11.50;3.75;;;21.60;99.90;;;;;;4941283;29;20100;-85
2022/07/06 05:10:45;;;;;;;13.27;4.03;;;21.70;99.90;;;;;;4943372;29;20032;-85
2022/07/06 05:13:13;;;;;;;8.50;3.97;;;22.00;99.90;;;;;;4947433;28;20036;-84
2022/07/06 05:15:39;;;;;;;9.73;4.18;;;22.10;99.90;;;;;;4927212;29;20044;-82
2022/07/06 05:18:05;;;;;;;11.23;3.58;;;22.10;99.90;;;;;;4942695;29;20036;-82
2022/07/06 05:20:30;;;;;;;7.97;2.92;;;22.00;99.90;;;;;;4941999;29;20043;-82
2022/07/06 05:22:57;;;;;;;13.05;3.05;;;22.00;99.90;;;;;;4933238;29;20028;-84
2022/07/06 05:25:28;;;;;;;8.68;2.70;;;21.90;99.90;;;;;;4939805;29;20029;-82
2022/07/06 05:27:54;;;;;;;12.13;3.13;;;21.90;99.90;;;;;;4938683;29;20024;-83
2022/07/06 05:30:20;;;;;;;5.05;2.88;;;21.90;99.90;;;;;;4955112;29;20047;-85
2022/07/06 05:33:11;;;;;;;6.78;2.40;;;21.90;99.90;;;;;;4942283;29;20068;-85
2022/07/06 05:35:37;;;;;;;7.55;4.18;;;21.90;99.90;;;;;;4974543;28;20104;-85
2022/07/06 05:38:04;;;;;;;16.25;4.00;;;21.90;99.90;;;;;;4958243;28;20012;-86
2022/07/06 05:40:30;;;;;;;6.22;2.92;;;21.90;99.90;;;;;;4941205;29;20036;-83
2022/07/06 05:42:57;;;;;;;6.18;3.25;;;22.10;99.90;;;;;;4956614;29;20008;-84
2022/07/06 05:45:23;;;;;;;8.77;3.08;;;22.20;99.90;;;;;;4941797;29;20072;-83
2022/07/06 05:50:35;;;;;;;4.60;2.47;;;22.70;99.90;;;;;;4948140;29;20020;-86
2022/07/06 05:53:04;;;;;;;2.58;2.05;;;22.90;99.90;;;;;;4936760;29;20039;-87
2022/07/06 05:55:31;;;;;;;4.15;2.40;;;23.10;99.90;;;;;;4945638;29;20385;-87
2022/07/06 05:57:59;;;;;;;4.75;2.80;;;23.10;99.90;;;;;;4952891;29;20036;-88
2022/07/06 06:00:27;;;;;;;6.35;2.40;;;23.10;99.90;;;;;;4969438;29;20077;-86
2022/07/06 06:02:58;;;;;;;6.60;2.67;;;23.20;99.90;;;;;;4941036;29;20016;-89
2022/07/06 06:05:25;;;;;;;5.85;2.30;;;23.10;99.90;;;;;;4949156;29;20023;-86
2022/07/06 06:07:54;;;;;;;8.07;2.40;;;23.20;99.90;;;;;;4958691;29;20058;-86
2022/07/06 06:10:25;;;;;;;12.57;2.70;;;23.20;99.90;;;;;;4940234;29;20031;-89
2022/07/06 06:12:54;;;;;;;6.75;2.85;;;23.30;99.90;;;;;;4934679;29;20079;-86
2022/07/06 06:15:21;;;;;;;7.15;2.50;;;23.20;99.90;;;;;;4932311;29;20036;-87
2022/07/06 06:17:47;;;;;;;15.55;3.00;;;23.40;99.90;;;;;;4935066;29;20114;-88
2022/07/06 06:20:14;;;;;;;6.63;2.72;;;23.50;99.90;;;;;;4942956;29;20024;-88
2022/07/06 06:22:51;;;;;;;7.18;2.53;;;23.50;99.90;;;;;;4958040;28;20121;-90
2022/07/06 06:25:29;;;;;;;9.55;2.72;;;23.70;99.90;;;;;;4942339;29;20028;-89
2022/07/06 06:27:54;;;;;;;13.23;2.63;;;23.60;99.90;;;;;;4942699;28;20024;-89
2022/07/06 06:30:20;;;;;;;15.15;2.45;;;23.50;99.90;;;;;;4925245;29;20084;-88
2022/07/06 06:32:46;;;;;;;9.25;2.90;;;23.50;99.90;;;;;;4933653;29;20012;-89
2022/07/06 06:35:12;;;;;;;5.20;2.40;;;23.60;99.90;;;;;;4929643;29;20025;-88
2022/07/06 06:37:38;;;;;;;4.45;2.60;;;23.70;99.90;;;;;;4931808;29;20012;-86
2022/07/06 06:40:05;;;;;;;4.07;2.83;;;23.50;99.90;;;;;;4927465;29;20029;-85
2022/07/06 06:42:32;;;;;;;5.32;2.95;;;23.30;99.90;;;;;;4922859;29;20040;-86
2022/07/06 06:44:58;;;;;;;4.45;2.53;;;23.30;99.90;;;;;;4922020;29;20031;-87
2022/07/06 06:47:24;;;;;;;4.55;2.20;;;23.20;99.90;;;;;;4919461;29;20461;-86
2022/07/06 06:49:50;;;;;;;3.38;2.20;;;23.20;99.90;;;;;;4922181;29;20036;-87
2022/07/06 06:52:16;;;;;;;6.63;2.70;;;23.10;99.90;;;;;;4921345;29;20088;-86
2022/07/06 06:54:42;;;;;;;6.65;2.97;;;23.10;99.90;;;;;;4918402;29;20096;-87
2022/07/06 06:57:08;;;;;;;8.15;2.40;;;23.00;99.90;;;;;;4967510;23;20091;-82
2022/07/06 06:59:33;;;;;;;3.45;2.70;;;23.00;99.90;;;;;;4953760;29;20032;-84
2022/07/06 07:01:59;;;;;;;5.75;2.65;;;23.00;99.90;;;;;;4958337;28;20066;-84
2022/07/06 07:04:25;;;;;;;3.72;2.40;;;22.90;99.90;;;;;;4950651;29;20047;-82
2022/07/06 07:06:51;;;;;;;3.90;2.60;;;22.70;99.90;;;;;;4940194;29;20039;-82
2022/07/06 07:09:17;;;;;;;5.75;2.40;;;22.70;99.90;;;;;;4924495;29;20024;-84
2022/07/06 07:11:43;;;;;;;4.90;2.58;;;22.80;99.90;;;;;;4937747;29;20120;-87
2022/07/06 07:14:08;;;;;;;6.03;2.90;;;22.80;99.90;;;;;;4939270;29;20023;-84
2022/07/06 07:16:34;;;;;;;9.50;2.75;;;23.00;99.90;;;;;;4954676;29;20024;-88
2022/07/06 07:19:00;;;;;;;6.90;2.60;;;23.10;99.90;;;;;;4970042;29;20048;-84
2022/07/06 07:21:26;;;;;;;5.85;2.70;;;23.20;99.90;;;;;;4954330;29;20096;-85
2022/07/06 07:23:52;;;;;;;8.38;2.65;;;23.30;99.90;;;;;;4938699;29;20504;-85
2022/07/06 07:26:18;;;;;;;6.03;3.20;;;23.40;99.90;;;;;;4952654;29;20123;-85
2022/07/06 07:28:43;;;;;;;4.45;2.78;;;23.50;99.90;;;;;;4938187;29;20012;-84
2022/07/06 07:31:09;;;;;;;4.07;2.95;;;23.70;99.90;;;;;;4954743;29;20109;-84
2022/07/06 07:33:36;;;;;;;6.47;2.92;;;23.80;99.90;;;;;;4955542;28;20123;-84
2022/07/06 07:36:02;;;;;;;3.42;2.67;;;23.90;99.90;;;;;;4972258;28;20052;-84
2022/07/06 07:38:28;;;;;;;4.68;2.70;;;24.10;99.90;;;;;;4941705;29;20103;-83
2022/07/06 07:40:54;;;;;;;11.35;2.72;;;24.30;99.90;;;;;;4941827;29;20092;-83
2022/07/06 07:43:20;;;;;;;6.45;2.60;;;24.60;99.90;;;;;;4941308;29;20017;-83
2022/07/06 07:45:47;;;;;;;5.45;2.42;;;25.00;99.90;;;;;;4971715;28;20035;-83
2022/07/06 07:48:14;;;;;;;4.43;2.13;;;25.20;99.90;;;;;;4954905;28;20032;-84
2022/07/06 07:50:41;;;;;;;6.95;2.22;;;25.40;99.90;;;;;;4946223;29;20039;-83
2022/07/06 07:53:07;;;;;;;5.38;2.42;;;25.60;99.70;;;;;;4927863;29;20024;-86
2022/07/06 07:55:33;;;;;;;5.05;2.40;;;25.80;99.60;;;;;;4945812;29;20066;-86
2022/07/06 07:57:59;;;;;;;3.58;2.30;;;26.20;98.50;;;;;;4932633;29;20066;-85
2022/07/06 08:00:26;;;;;;;5.32;2.63;;;26.50;98.20;;;;;;4970375;28;20053;-84
2022/07/06 08:02:52;;;;;;;3.30;2.10;;;26.70;97.30;;;;;;4955187;28;20020;-85
2022/07/06 08:05:18;;;;;;;8.70;2.35;;;27.10;96.60;;;;;;4935481;29;20036;-85
2022/07/06 08:07:44;;;;;;;4.95;2.30;;;27.20;96.00;;;;;;4933539;29;20021;-85
2022/07/06 08:10:11;;;;;;;6.70;2.20;;;27.30;95.90;;;;;;4932014;29;20044;-86
2022/07/06 08:12:37;;;;;;;7.65;2.33;;;27.20;95.20;;;;;;4942947;29;20040;-86
2022/07/06 08:15:04;;;;;;;5.80;2.20;;;27.00;95.30;;;;;;4930281;29;20688;-85
2022/07/06 08:17:30;;;;;;;4.20;2.00;;;27.00;95.00;;;;;;4945240;29;20036;-84
2022/07/06 08:19:56;;;;;;;4.00;2.45;;;26.50;95.20;;;;;;4929282;29;20115;-86
2022/07/06 08:22:22;;;;;;;3.83;2.03;;;26.60;94.60;;;;;;4928605;29;20036;-86
2022/07/06 08:24:47;;;;;;;4.07;2.20;;;26.40;94.20;;;;;;4942845;29;20040;-86
2022/07/06 08:27:13;;;;;;;6.47;2.45;;;26.10;95.00;;;;;;4933624;29;20020;-83
2022/07/06 08:29:39;;;;;;;5.30;2.10;;;25.60;95.70;;;;;;4940539;29;20084;-85
2022/07/06 08:32:05;;;;;;;7.35;2.58;;;25.60;95.80;;;;;;4945938;29;20032;-86
2022/07/06 08:34:31;;;;;;;11.75;2.80;;;25.70;96.10;;;;;;4929818;29;20036;-86
2022/07/06 08:36:57;;;;;;;3.42;2.35;;;25.80;96.20;;;;;;4944883;29;20056;-85
2022/07/06 08:39:23;;;;;;;8.20;2.55;;;25.80;96.80;;;;;;4929816;29;20044;-86
2022/07/06 08:41:50;;;;;;;4.82;3.05;;;25.80;95.70;;;;;;4929718;29;20620;-86
2022/07/06 08:44:17;;;;;;;4.45;3.05;;;25.70;95.80;;;;;;4929461;29;20068;-85
2022/07/06 08:46:44;;;;;;;8.07;2.58;;;25.90;95.60;;;;;;4929086;29;20043;-86
2022/07/06 08:49:14;;;;;;;4.35;2.40;;;25.80;95.90;;;;;;4929810;29;20047;-84
2022/07/06 08:51:41;;;;;;;6.07;2.38;;;25.80;95.50;;;;;;4928213;29;20059;-86
2022/07/06 08:54:08;;;;;;;3.97;2.13;;;25.90;94.80;;;;;;4929092;29;20475;-85
2022/07/06 08:56:34;;;;;;;9.68;2.65;;;26.00;94.80;;;;;;4926535;29;20091;-86
2022/07/06 08:59:00;;;;;;;5.55;2.50;;;26.20;94.80;;;;;;4935957;29;20036;-84
2022/07/06 09:01:26;;;;;;;7.00;2.33;;;26.30;94.70;;;;;;4931874;29;20052;-86
2022/07/06 09:03:55;;;;;;;4.60;2.33;;;26.40;94.50;;;;;;4931078;29;20028;-84
2022/07/06 09:06:24;;;;;;;3.17;2.15;;;26.40;94.80;;;;;;4929492;29;20035;-85
2022/07/06 09:08:55;;;;;;;5.18;2.35;;;26.60;95.00;;;;;;4931463;29;20012;-84
2022/07/06 09:11:25;;;;;;;10.43;2.55;;;26.90;94.60;;;;;;4937808;29;20040;-85
2022/07/06 09:13:51;;;;;;;3.65;2.25;;;27.20;94.40;;;;;;4951988;29;20075;-85
2022/07/06 09:16:17;;;;;;;3.97;2.15;;;27.10;94.40;;;;;;4935993;29;20016;-84
2022/07/06 09:18:44;;;;;;;5.82;2.55;;;26.90;94.60;;;;;;4954744;28;20017;-84
2022/07/06 09:21:10;;;;;;;6.25;2.60;;;26.70;94.90;;;;;;4939767;29;20044;-85
2022/07/06 09:23:37;;;;;;;5.25;2.28;;;26.70;95.00;;;;;;4939290;29;20036;-85
2022/07/06 09:26:05;;;;;;;5.45;2.42;;;26.80;94.80;;;;;;4946344;29;20048;-85
2022/07/06 09:28:44;;;;;;;8.13;2.45;;;26.60;94.90;;;;;;4947325;29;20408;-84
2022/07/06 09:31:10;;;;;;;5.85;2.70;;;26.50;95.20;;;;;;4932732;29;20040;-85
2022/07/06 09:33:36;;;;;;;6.32;2.85;;;26.40;95.50;;;;;;4932490;29;20047;-85
2022/07/06 09:36:05;;;;;;;4.03;2.50;;;26.50;95.60;;;;;;4930772;29;20123;-86
2022/07/06 09:38:31;;;;;;;6.47;3.17;;;26.60;95.80;;;;;;4932320;29;20027;-85
2022/07/06 09:40:57;;;;;;;9.85;3.10;;;26.70;96.00;;;;;;4938110;29;20100;-86
2022/07/06 09:43:24;;;;;;;6.25;2.85;;;26.80;95.80;;;;;;4932551;29;20039;-86
2022/07/06 09:45:55;;;;;;;5.45;3.13;;;26.80;95.40;;;;;;4943509;29;20028;-83
2022/07/06 09:48:23;;;;;;;7.70;3.45;;;26.80;95.00;;;;;;4938725;29;20118;-84
2022/07/06 09:50:53;;;;;;;11.27;3.22;;;26.60;95.00;;;;;;4934779;29;20200;-87
2022/07/06 09:53:20;;;;;;;3.97;2.67;;;26.50;95.40;;;;;;4932638;29;20060;-85
2022/07/06 09:55:47;;;;;;;4.05;3.10;;;26.20;95.80;;;;;;4937841;29;20032;-84
2022/07/06 09:58:14;;;;;;;10.43;3.33;;;26.10;96.00;;;;;;4935368;29;20056;-85
2022/07/06 10:00:41;;;;;;;4.68;2.80;;;26.00;96.30;;;;;;4933466;29;20028;-84
2022/07/06 10:03:08;;;;;;;8.13;3.17;;;26.00;96.40;;;;;;4932180;29;20036;-86
2022/07/06 10:05:37;;;;;;;13.13;3.45;;;26.30;96.10;;;;;;4932077;29;20027;-85
2022/07/06 10:08:05;;;;;;;6.18;3.00;;;26.80;95.60;;;;;;4946947;29;20067;-85
2022/07/06 10:10:32;;;;;;;4.28;2.60;;;27.60;94.70;;;;;;4947228;29;20029;-86
2022/07/06 10:12:59;;;;;;;7.70;3.40;;;27.60;94.60;;;;;;4935692;29;20036;-87
2022/07/06 10:15:31;;;;;;;4.32;2.20;;;28.10;94.30;;;;;;4942297;29;20039;-86
2022/07/06 10:17:59;;;;;;;4.70;2.60;;;29.40;93.30;;;;;;4957870;28;20143;-83
2022/07/06 10:20:28;;;;;;;3.83;2.55;;;30.20;92.00;;;;;;4938184;29;20063;-86
2022/07/06 10:22:57;;;;;;;2.55;2.25;;;30.10;91.50;;;;;;4952823;29;20036;-86
2022/07/06 10:25:24;;;;;;;5.60;2.13;;;29.70;91.30;;;;;;4929786;29;20019;-86
2022/07/06 10:27:52;;;;;;;3.05;2.05;;;29.80;90.80;;;;;;4934165;29;20100;-86
2022/07/06 10:30:18;;;;;;;6.03;2.30;;;31.40;89.20;;;;;;4935666;29;20031;-85
2022/07/06 10:32:46;;;;;;;5.70;2.00;;;32.10;86.90;;;;;;4935062;29;20027;-85
2022/07/06 10:35:13;;;;;;;2.63;2.03;;;31.50;87.20;;;;;;4937269;29;20020;-85
2022/07/06 10:37:40;;;;;;;4.07;2.70;;;31.80;86.20;;;;;;4950943;29;20068;-86
2022/07/06 10:43:02;;;;;;;5.18;2.33;;;34.30;82.20;;;;;;4932218;29;20036;-86
2022/07/06 10:45:27;;;;;;;3.78;1.90;;;35.80;78.40;;;;;;4932788;29;20032;-86
2022/07/06 10:48:22;;;;;;;5.43;2.17;;;35.10;76.10;;;;;;4931964;29;20036;-87
2022/07/06 10:50:54;;;;;;;3.60;2.28;;;33.10;78.20;;;;;;4923613;29;20051;-86
2022/07/06 10:53:38;;;;;;;2.63;1.90;;;31.60;80.50;;;;;;4946155;29;20040;-85
2022/07/06 10:56:08;;;;;;;5.18;2.22;;;30.10;83.20;;;;;;4930276;29;20130;-86
2022/07/06 10:58:46;;;;;;;6.55;2.10;;;29.10;85.70;;;;;;4943538;29;20055;-86
2022/07/06 11:01:13;;;;;;;5.38;2.03;;;28.50;87.20;;;;;;4930450;29;20043;-86
2022/07/06 11:03:44;;;;;;;5.35;1.90;;;27.90;88.30;;;;;;4929566;29;20028;-86
2022/07/06 11:06:17;;;;;;;7.95;2.70;;;27.30;90.00;;;;;;4931894;29;20146;-86
2022/07/06 11:08:54;;;;;;;5.97;2.25;;;26.90;90.30;;;;;;4937824;29;20040;-86
2022/07/06 11:11:20;;;;;;;6.80;1.90;;;25.80;87.60;;;;;;4930736;29;20028;-86
2022/07/06 11:13:49;;;;;;;6.55;1.80;;;24.80;87.80;;;;;;4932606;29;20052;-86
2022/07/06 11:16:17;;;;;;;4.30;1.65;;;24.30;88.70;;;;;;4946016;29;20544;-85
2022/07/06 11:19:10;;;;;;;9.60;2.35;;;23.60;89.10;;;;;;4927942;29;20060;-86
2022/07/06 11:21:43;;;;;;;3.70;1.80;;;23.20;89.90;;;;;;4928307;29;20032;-85
2022/07/06 11:24:11;;;;;;;14.43;2.17;;;23.40;90.10;;;;;;4935983;29;20039;-83
2022/07/06 11:26:38;;;;;;;12.10;2.60;;;23.40;91.50;;;;;;4932240;29;20553;-85
2022/07/06 11:29:09;;;;;;;12.00;3.20;;;23.60;94.90;;;;;;4929590;29;20131;-87
2022/07/06 11:31:40;;;;;;;11.05;2.78;;;23.30;99.50;;;;;;4929127;29;20038;-86
2022/07/06 11:34:08;;;;;;;13.25;3.90;;;22.80;99.90;;;;;;4928712;29;20067;-86
2022/07/06 11:36:35;;;;;;;16.55;3.65;;;22.60;99.90;;;;;;4938299;29;20097;-85
2022/07/06 11:39:01;;;;;;;13.45;3.80;;;22.70;99.90;;;;;;4933931;29;20484;-85
2022/07/06 11:41:27;;;;;;;7.68;2.38;;;23.90;99.90;;;;;;4938490;29;20031;-85
2022/07/06 11:43:53;;;;;;;7.70;2.38;;;25.40;99.90;;;;;;4939787;29;20032;-85
2022/07/06 11:46:25;;;;;;;7.18;1.92;;;27.20;99.90;;;;;;4940770;29;20051;-85
2022/07/06 11:48:54;;;;;;;4.70;1.55;;;29.50;98.70;;;;;;4955506;28;20084;-87
2022/07/06 11:51:21;;;;;;;3.38;1.50;;;31.40;93.30;;;;;;4937489;29;20036;-85
2022/07/06 11:53:51;;;;;;;4.65;1.90;;;33.30;89.30;;;;;;4940399;29;20043;-85
2022/07/06 11:56:27;;;;;;;3.55;1.60;;;35.40;82.20;;;;;;4937938;29;20028;-86
2022/07/06 11:58:54;;;;;;;7.55;1.55;;;36.30;76.10;;;;;;4930052;29;20107;-86
2022/07/06 12:01:23;;;;;;;4.45;1.70;;;37.00;74.20;;;;;;4932057;29;20035;-86
2022/07/06 12:03:49;;;;;;;2.50;1.65;;;37.90;71.10;;;;;;4932499;29;20021;-86
2022/07/06 12:06:21;;;;;;;5.45;2.00;;;37.90;70.10;;;;;;4961306;29;20034;-87
2022/07/06 12:08:52;;;;;;;3.75;1.65;;;38.50;66.90;;;;;;4931028;29;20144;-86
2022/07/06 12:11:28;;;;;;;1.92;1.60;;;38.10;66.10;;;;;;4932015;29;20603;-84
2022/07/06 12:14:00;;;;;;;5.55;1.80;;;38.80;64.20;;;;;;4930501;29;20033;-86
2022/07/06 12:16:36;;;;;;;5.13;1.80;;;39.10;64.60;;;;;;4930618;29;20024;-85
2022/07/06 12:19:05;;;;;;;11.55;2.15;;;39.00;64.90;;;;;;4929545;29;20105;-86
2022/07/06 12:21:35;;;;;;;1.80;1.13;;;39.00;63.40;;;;;;4935622;29;20043;-84
2022/07/06 12:24:08;;;;;;;3.35;1.40;;;40.20;62.00;;;;;;4934955;29;20071;-86
2022/07/06 12:26:40;;;;;;;2.92;1.20;;;41.60;57.10;;;;;;4932053;29;20028;-87
2022/07/06 12:29:13;;;;;;;2.42;1.42;;;41.40;56.30;;;;;;4924435;29;20402;-86
2022/07/06 12:31:51;;;;;;;1.83;1.20;;;42.10;56.20;;;;;;4920316;29;20039;-87
2022/07/06 12:34:25;;;;;;;2.83;0.93;;;41.30;54.00;;;;;;4925719;29;20088;-85
2022/07/06 12:36:52;;;;;;;4.72;1.42;;;41.40;54.40;;;;;;4927627;29;20047;-87
2022/07/06 12:39:23;;;;;;;2.55;1.38;;;41.00;54.20;;;;;;4934320;29;20035;-85
2022/07/06 12:41:51;;;;;;;2.30;1.40;;;40.70;53.00;;;;;;4955333;28;20029;-84
2022/07/06 12:44:22;;;;;;;2.60;1.13;;;39.40;54.60;;;;;;4936868;29;20036;-85
2022/07/06 12:46:49;;;;;;;2.58;1.52;;;37.70;56.40;;;;;;4937253;29;20055;-85
2022/07/06 12:49:18;;;;;;;2.88;1.23;;;36.00;57.30;;;;;;4938091;29;20035;-85
2022/07/06 12:51:50;;;;;;;4.20;1.48;;;34.40;59.70;;;;;;4936967;29;20041;-84
2022/07/06 12:54:18;;;;;;;3.67;1.40;;;32.80;61.30;;;;;;4936278;29;20052;-84